Airfield :
LOGIN :

Register | Disclaimer

   EN    FR    IT 

 










Legend :    VFR   Marginal VFR   IFR   Intensive IFR   Very Intensive IFR
Visi :
Ceiling :
>= 8 km
>= 3000ft
5 to 8 km
1000 to 3000 ft
1500m to 5 km
500 to 1000 ft
800 to 1500m
200 to 500 ft
< 800m
< 200 ft
Symbols :   Thunderstorms  Fog  Heavy snow  Heavy precipitations  Wind > 20 kt
SIGMETs :     Misc.  Thunderstorms  Icing  Turbulence  Mountain Waves  Volcanic Ashes






- Airport Elevation : 184 ft
- IATA code : BRU


EBBR - Bruxelles

CURRENT METAR :
  • 280750Z 34002KT 9999 BKN019 03/01 Q0998 NOSIG

EXPIRED METARs :
  • 280720Z 36002KT 9999 BKN020 03/01 Q0997 NOSIG
  • 280650Z 36005KT 9999 BKN020 03/01 Q0997 NOSIG
  • 280620Z 35003KT 6000 FEW008 BKN019 03/01 Q0996 TEMPO 4000 BR
  • 280550Z 36004KT 5000 BR FEW008 BKN022 03/02 Q0996 TEMPO 4000 BR BKN008 BKN022
  • 280520Z 01005KT 340V040 4000 BR SCT007 BKN022 03/02 Q0996 TEMPO 6000 NSW BKN007 BKN022

TAF TAF EBBR
Valid from the 28 at 06:00 until the 29 at 12:00 UTC


280503Z 2806/2912 34006KT 8000 SCT008 BKN018
TEMPO 2806/2810 4000 BR BKN007
PROB30
TEMPO 2806/2809 BKN004
PROB30
TEMPO 2812/2815 3500 SHRAGS SHRASN BKN006 BKN012TCU
PROB30
TEMPO 2822/2905 4000 BR BKN006
PROB30
TEMPO 2905/2912 3500 SHRAGS SHRASN BKN006 BKN012TCU



MET'MAP, your aeronautical weather chart ! - Copyright ORBIFLY December 2007 - Disclaimer

ORBIFLY MET'MAP TEAM :

Programming & Development : Alexandra Zaïnal
Concept & original design : Baudouin d'Aumeries
Assistance for programming : Marc-Olivier Méhu
Technical & hardware support : Manuel Goepfert

Contact : metmap@orbifly.com




SOURCES & CREDITS :

   NOAA